Time;durP1;ratioP1;P1;durP2;ratioP2;P2;SDS_P1;SDS_P2;PMS_P1;PMS_P2;Temp;Humidity;BMP_temperature;BMP_pressure;BME280_temperature;BME280_humidity;BME280_pressure;Samples;Min_cycle;Max_cycle;Signal;HPM_P1;HPM_P2
2021/01/23 00:00:22;;;;;;;8.00;5.53;;;6.00;1.00;;;;;;5041709;28;20041;-81
2021/01/23 00:02:47;;;;;;;7.00;5.20;;;6.00;1.00;;;;;;5053850;28;20109;-81
2021/01/23 00:05:13;;;;;;;9.52;5.38;;;6.20;1.00;;;;;;5052718;28;20368;-81
2021/01/23 00:07:39;;;;;;;8.57;5.13;;;6.10;1.00;;;;;;5040452;28;20021;-81
2021/01/23 00:10:06;;;;;;;9.27;5.60;;;6.10;1.00;;;;;;5033863;28;20463;-81
2021/01/23 00:12:31;;;;;;;9.70;5.90;;;6.20;1.00;;;;;;5033597;28;20080;-81
2021/01/23 00:14:57;;;;;;;8.73;5.45;;;6.50;1.00;;;;;;5035793;28;20033;-81
2021/01/23 00:17:23;;;;;;;7.28;5.13;;;6.70;1.00;;;;;;5034366;28;20024;-81
2021/01/23 00:19:48;;;;;;;9.10;6.07;;;6.80;1.00;;;;;;5033183;28;20025;-82
2021/01/23 00:22:14;;;;;;;12.68;7.53;;;6.30;1.00;;;;;;5041685;28;20495;-82
2021/01/23 00:24:39;;;;;;;8.98;6.05;;;6.40;1.00;;;;;;5045431;28;20032;-82
2021/01/23 00:27:05;;;;;;;8.35;5.57;;;6.70;1.00;;;;;;5032381;28;20038;-82
2021/01/23 00:29:31;;;;;;;8.95;5.55;;;6.40;1.00;;;;;;5039403;28;20018;-82
2021/01/23 00:31:57;;;;;;;8.93;5.72;;;6.80;1.00;;;;;;5034035;28;20017;-82
2021/01/23 00:34:23;;;;;;;6.40;4.78;;;6.80;1.00;;;;;;5038195;28;20491;-82
2021/01/23 00:36:48;;;;;;;6.13;4.32;;;6.30;1.00;;;;;;5053360;28;20071;-82
2021/01/23 00:39:14;;;;;;;6.45;4.25;;;6.70;1.00;;;;;;5033870;28;20033;-82
2021/01/23 00:41:39;;;;;;;5.47;3.95;;;6.70;1.00;;;;;;5033519;28;20022;-81
2021/01/23 00:44:05;;;;;;;6.60;3.88;;;6.40;1.00;;;;;;5033694;28;20029;-81
2021/01/23 00:46:31;;;;;;;8.63;4.80;;;6.40;1.00;;;;;;5046839;28;20021;-81
2021/01/23 00:48:56;;;;;;;10.82;4.82;;;6.70;1.00;;;;;;5032213;28;20071;-81
2021/01/23 00:51:22;;;;;;;5.10;3.30;;;6.40;1.00;;;;;;5034843;28;20080;-81
2021/01/23 00:53:47;;;;;;;4.53;2.30;;;6.70;1.00;;;;;;5047269;28;20398;-81
2021/01/23 00:56:13;;;;;;;3.00;1.80;;;6.70;1.00;;;;;;5053472;28;20025;-81
2021/01/23 00:58:40;;;;;;;2.58;1.50;;;6.70;1.00;;;;;;5053324;28;20053;-81
2021/01/23 01:01:06;;;;;;;2.28;1.30;;;6.80;1.00;;;;;;5043886;28;20037;-81
2021/01/23 01:03:32;;;;;;;3.33;1.40;;;6.40;1.00;;;;;;5032976;28;20037;-81
2021/01/23 01:05:59;;;;;;;1.33;1.20;;;6.60;1.00;;;;;;5039797;28;20025;-81
2021/01/23 01:08:24;;;;;;;1.67;1.33;;;6.80;1.00;;;;;;5033185;28;20464;-81
2021/01/23 01:10:50;;;;;;;3.05;1.90;;;6.40;1.00;;;;;;5047081;28;20052;-81
2021/01/23 01:13:16;;;;;;;4.57;3.00;;;6.80;1.00;;;;;;5040998;28;20034;-81
2021/01/23 01:15:42;;;;;;;5.68;3.70;;;6.30;1.00;;;;;;5033075;28;20017;-82
2021/01/23 01:18:08;;;;;;;5.90;3.42;;;6.80;1.00;;;;;;5032361;28;20564;-81
2021/01/23 01:20:34;;;;;;;2.67;1.90;;;6.70;1.00;;;;;;5039314;28;20514;-81
2021/01/23 01:23:00;;;;;;;2.90;1.40;;;6.70;1.00;;;;;;5052891;28;20368;-81
2021/01/23 01:25:27;;;;;;;1.80;1.50;;;6.30;1.00;;;;;;5044124;28;20033;-81
2021/01/23 01:27:53;;;;;;;4.10;2.15;;;6.30;1.00;;;;;;5032841;28;20112;-81
2021/01/23 01:30:20;;;;;;;3.78;2.08;;;6.30;1.00;;;;;;5034379;28;20021;-81
2021/01/23 01:32:45;;;;;;;4.90;2.70;;;6.30;1.00;;;;;;5032806;28;20025;-81
2021/01/23 01:35:11;;;;;;;9.40;4.00;;;6.40;1.00;;;;;;5038459;28;20044;-81
2021/01/23 01:37:36;;;;;;;5.65;3.30;;;6.20;1.00;;;;;;5043592;28;20398;-81
2021/01/23 01:40:04;;;;;;;5.38;3.35;;;6.30;1.00;;;;;;5018556;28;20184;-82
2021/01/23 01:42:29;;;;;;;6.57;3.75;;;6.10;1.00;;;;;;5037644;28;20026;-81
2021/01/23 01:44:55;;;;;;;4.63;3.10;;;6.10;1.00;;;;;;5034577;28;20448;-81
2021/01/23 01:47:21;;;;;;;4.03;2.58;;;6.60;1.00;;;;;;5032662;28;20501;-81
2021/01/23 01:49:48;;;;;;;4.22;2.72;;;6.60;1.00;;;;;;5045461;28;20020;-81
2021/01/23 01:52:14;;;;;;;4.70;2.60;;;6.20;1.00;;;;;;5033528;28;20029;-81
2021/01/23 01:54:40;;;;;;;4.45;2.80;;;6.60;1.00;;;;;;5045839;28;20419;-81
2021/01/23 01:57:06;;;;;;;3.25;2.60;;;6.60;1.00;;;;;;5039273;28;20025;-81
2021/01/23 01:59:32;;;;;;;3.28;2.50;;;6.60;1.00;;;;;;5032382;28;20041;-81
2021/01/23 02:02:16;;;;;;;3.45;2.50;;;6.50;1.00;;;;;;5032176;28;20033;-81
2021/01/23 02:05:02;;;;;;;4.50;2.97;;;6.10;1.00;;;;;;5021759;28;20132;-81
2021/01/23 02:08:07;;;;;;;3.50;2.50;;;6.30;1.00;;;;;;5031895;28;20534;-81
2021/01/23 02:11:03;;;;;;;3.55;2.53;;;6.10;1.00;;;;;;5010366;28;20069;-81
2021/01/23 02:13:40;;;;;;;4.30;2.25;;;6.00;1.00;;;;;;5010271;28;20125;-81
2021/01/23 02:16:18;;;;;;;3.60;2.58;;;6.30;1.00;;;;;;5010092;28;20503;-81
2021/01/23 02:19:02;;;;;;;5.38;3.08;;;5.90;1.00;;;;;;5010506;28;20030;-81
2021/01/23 02:21:53;;;;;;;3.20;2.20;;;5.80;1.00;;;;;;5019714;28;20033;-81
2021/01/23 02:24:24;;;;;;;4.40;2.58;;;5.70;1.00;;;;;;5010041;28;20377;-81
2021/01/23 02:26:56;;;;;;;4.72;2.70;;;6.00;1.00;;;;;;5010183;28;20072;-81
2021/01/23 02:29:22;;;;;;;4.70;3.00;;;5.80;1.00;;;;;;5016890;28;20029;-81
2021/01/23 02:32:01;;;;;;;4.15;2.85;;;5.40;1.00;;;;;;5019696;28;20025;-81
2021/01/23 02:34:29;;;;;;;4.28;2.83;;;5.70;1.00;;;;;;5018210;28;20033;-81
2021/01/23 02:36:58;;;;;;;3.80;2.47;;;5.20;1.00;;;;;;4993511;28;20461;-81
2021/01/23 02:39:24;;;;;;;3.25;2.90;;;5.20;1.00;;;;;;5010130;28;20491;-81
2021/01/23 02:41:53;;;;;;;3.72;2.65;;;5.20;1.00;;;;;;5021322;28;20052;-81
2021/01/23 02:44:19;;;;;;;4.57;2.83;;;5.30;1.00;;;;;;5004074;28;20026;-81
2021/01/23 02:46:45;;;;;;;4.50;2.40;;;5.10;1.00;;;;;;5031812;28;20044;-81
2021/01/23 02:49:11;;;;;;;4.63;2.70;;;5.20;1.00;;;;;;5035745;28;20025;-81
2021/01/23 02:51:42;;;;;;;3.83;2.60;;;5.60;1.00;;;;;;5035533;28;20028;-81
2021/01/23 02:54:26;;;;;;;6.45;2.63;;;5.50;1.00;;;;;;5035818;28;20026;-81
2021/01/23 02:56:55;;;;;;;6.03;2.63;;;5.10;1.00;;;;;;5035921;28;20021;-81
2021/01/23 02:59:22;;;;;;;5.38;2.60;;;5.10;1.00;;;;;;5040389;28;20076;-81
2021/01/23 03:01:50;;;;;;;3.97;2.45;;;5.10;1.00;;;;;;5036500;28;20518;-81
2021/01/23 03:04:19;;;;;;;3.30;2.55;;;5.50;1.00;;;;;;5036137;28;20492;-81
2021/01/23 03:06:45;;;;;;;4.55;2.90;;;5.10;1.00;;;;;;5031051;28;20033;-81
2021/01/23 03:09:19;;;;;;;5.32;2.60;;;5.50;1.00;;;;;;5035379;28;20075;-81
2021/01/23 03:11:45;;;;;;;3.33;2.33;;;5.90;1.00;;;;;;5034246;28;20108;-81
2021/01/23 03:14:11;;;;;;;5.20;2.38;;;5.80;1.00;;;;;;5033687;28;20490;-81
2021/01/23 03:16:37;;;;;;;3.65;2.65;;;5.80;1.00;;;;;;5034963;28;20029;-81
2021/01/23 03:19:04;;;;;;;5.45;2.55;;;5.70;1.00;;;;;;5033238;28;20094;-81
2021/01/23 03:21:30;;;;;;;3.60;2.60;;;6.20;1.00;;;;;;5036794;28;20561;-81
2021/01/23 03:23:55;;;;;;;4.95;2.90;;;6.10;1.00;;;;;;5035124;28;20160;-81
2021/01/23 03:26:22;;;;;;;3.35;2.33;;;5.70;1.00;;;;;;5032553;28;20120;-81
2021/01/23 03:28:47;;;;;;;6.78;3.40;;;6.00;1.00;;;;;;5037687;28;20099;-81
2021/01/23 03:31:13;;;;;;;3.17;2.28;;;5.60;1.00;;;;;;5037990;28;20486;-81
2021/01/23 03:33:38;;;;;;;4.20;2.70;;;5.70;1.00;;;;;;5032902;28;20040;-81
2021/01/23 03:36:04;;;;;;;4.47;2.50;;;5.60;1.00;;;;;;5032534;28;20025;-81
2021/01/23 03:38:30;;;;;;;6.97;3.15;;;5.40;1.00;;;;;;5033678;28;20116;-81
2021/01/23 03:40:56;;;;;;;5.78;3.20;;;5.30;1.00;;;;;;5043309;28;20158;-81
2021/01/23 03:43:21;;;;;;;5.00;3.03;;;5.30;1.00;;;;;;5029966;28;20029;-81
2021/01/23 03:45:47;;;;;;;4.10;2.85;;;5.20;1.00;;;;;;5031106;28;20043;-81
2021/01/23 03:48:12;;;;;;;5.30;2.72;;;5.30;1.00;;;;;;5032196;28;20021;-81
2021/01/23 03:50:38;;;;;;;4.13;3.13;;;5.70;1.00;;;;;;5032048;28;20143;-81
2021/01/23 03:53:04;;;;;;;4.85;2.90;;;5.40;1.00;;;;;;5032847;28;20394;-81
2021/01/23 03:55:29;;;;;;;6.45;3.22;;;5.60;1.00;;;;;;5031034;28;20071;-81
2021/01/23 03:57:55;;;;;;;6.90;2.90;;;5.30;1.00;;;;;;5033448;28;20029;-81
2021/01/23 04:00:21;;;;;;;4.47;3.03;;;5.70;1.00;;;;;;5030162;28;20091;-81
2021/01/23 04:02:46;;;;;;;4.35;3.15;;;5.40;1.00;;;;;;5032079;28;20036;-81
2021/01/23 04:05:13;;;;;;;5.97;3.45;;;5.40;1.00;;;;;;5033099;28;20431;-81
2021/01/23 04:07:39;;;;;;;6.60;3.53;;;5.50;1.00;;;;;;5034435;28;20033;-81
2021/01/23 04:10:05;;;;;;;6.15;3.40;;;5.50;1.00;;;;;;5031968;28;20510;-81
2021/01/23 04:12:32;;;;;;;5.20;2.80;;;5.60;1.00;;;;;;5032938;28;20057;-81
2021/01/23 04:14:58;;;;;;;6.63;3.55;;;5.60;1.00;;;;;;5031607;28;20017;-81
2021/01/23 04:17:24;;;;;;;6.13;3.72;;;5.70;1.00;;;;;;5033725;28;20395;-81
2021/01/23 04:19:49;;;;;;;5.07;3.63;;;5.90;1.00;;;;;;5035859;28;20020;-81
2021/01/23 04:22:15;;;;;;;6.55;3.63;;;6.00;1.00;;;;;;5045810;28;20038;-81
2021/01/23 04:24:40;;;;;;;5.63;3.10;;;5.70;1.00;;;;;;5044836;28;20487;-81
2021/01/23 04:27:06;;;;;;;6.50;2.80;;;6.00;1.00;;;;;;5033976;28;20112;-81
2021/01/23 04:29:32;;;;;;;5.13;2.97;;;5.90;1.00;;;;;;5029981;28;20025;-81
2021/01/23 04:31:57;;;;;;;4.97;2.95;;;6.30;1.00;;;;;;5024411;28;20033;-81
2021/01/23 04:34:23;;;;;;;4.60;2.60;;;5.90;1.00;;;;;;5034939;28;20022;-81
2021/01/23 04:36:48;;;;;;;4.38;2.63;;;6.30;1.00;;;;;;5033928;28;20112;-81
2021/01/23 04:39:14;;;;;;;4.10;2.70;;;6.30;1.00;;;;;;5032303;28;20032;-81
2021/01/23 04:41:40;;;;;;;4.50;2.80;;;5.80;1.00;;;;;;5033806;28;20032;-81
2021/01/23 04:44:06;;;;;;;3.85;2.78;;;5.90;1.00;;;;;;5031663;28;20025;-81
2021/01/23 04:46:33;;;;;;;3.70;2.83;;;5.90;1.00;;;;;;5033475;28;20551;-81
2021/01/23 04:48:59;;;;;;;3.30;2.60;;;6.00;1.00;;;;;;5041544;28;20025;-81
2021/01/23 04:51:26;;;;;;;4.82;2.85;;;6.00;1.00;;;;;;5037907;28;20038;-81
2021/01/23 04:53:52;;;;;;;3.70;2.45;;;6.30;1.00;;;;;;5033348;28;20096;-81
2021/01/23 04:56:18;;;;;;;4.28;2.83;;;5.80;1.00;;;;;;5032226;28;20402;-81
2021/01/23 04:58:43;;;;;;;3.55;2.42;;;5.90;1.00;;;;;;5031333;28;20037;-81
2021/01/23 05:01:13;;;;;;;5.10;2.72;;;6.20;1.00;;;;;;5032703;28;20151;-81
2021/01/23 05:04:03;;;;;;;4.80;3.03;;;6.40;1.00;;;;;;5030984;28;20029;-81
2021/01/23 05:06:29;;;;;;;4.03;3.00;;;5.80;1.00;;;;;;5032855;28;20056;-81
2021/01/23 05:08:56;;;;;;;3.90;3.17;;;6.20;1.00;;;;;;5035873;28;20021;-81
2021/01/23 05:11:22;;;;;;;5.10;3.53;;;5.80;1.00;;;;;;5033323;28;20211;-81
2021/01/23 05:14:10;;;;;;;5.95;3.38;;;6.20;1.00;;;;;;5029202;28;20032;-81
2021/01/23 05:16:36;;;;;;;4.68;2.90;;;5.80;1.00;;;;;;5031975;28;20034;-81
2021/01/23 05:19:02;;;;;;;6.68;3.55;;;6.00;1.00;;;;;;5037006;28;20027;-81
2021/01/23 05:21:31;;;;;;;6.00;3.55;;;5.80;1.00;;;;;;5036611;28;20032;-81
2021/01/23 05:24:23;;;;;;;4.53;3.97;;;6.00;1.00;;;;;;5036649;28;20072;-81
2021/01/23 05:26:55;;;;;;;5.03;3.78;;;5.60;1.00;;;;;;5027952;28;20163;-81
2021/01/23 05:29:22;;;;;;;4.65;3.17;;;5.60;1.00;;;;;;5042688;28;20021;-81
2021/01/23 05:32:07;;;;;;;4.90;3.65;;;5.90;1.00;;;;;;5037503;28;20084;-81
2021/01/23 05:34:33;;;;;;;4.75;3.25;;;5.50;1.00;;;;;;5025362;28;20029;-81
2021/01/23 05:36:59;;;;;;;3.08;2.30;;;5.50;1.00;;;;;;5036735;28;20066;-81
2021/01/23 05:39:50;;;;;;;5.45;2.05;;;5.50;1.00;;;;;;5032687;28;20022;-81
2021/01/23 05:42:17;;;;;;;3.70;1.98;;;5.60;1.00;;;;;;5035983;28;20036;-81
2021/01/23 05:45:04;;;;;;;3.28;1.70;;;5.60;1.00;;;;;;5030792;28;20066;-81
2021/01/23 05:47:29;;;;;;;1.83;1.70;;;6.00;1.00;;;;;;5021462;28;20034;-81
2021/01/23 05:49:55;;;;;;;5.68;1.77;;;5.40;1.00;;;;;;5035218;28;20021;-81
2021/01/23 05:52:21;;;;;;;3.42;1.95;;;5.30;1.00;;;;;;5032878;28;20028;-81
2021/01/23 05:54:47;;;;;;;2.60;1.88;;;5.60;1.00;;;;;;5037721;28;20017;-81
2021/01/23 05:57:14;;;;;;;2.97;2.35;;;5.60;1.00;;;;;;5034240;28;20033;-81
2021/01/23 05:59:41;;;;;;;4.43;2.45;;;5.20;1.00;;;;;;5029575;28;20050;-81
2021/01/23 06:02:09;;;;;;;3.95;2.20;;;5.50;1.00;;;;;;5029490;28;20029;-81
2021/01/23 06:04:36;;;;;;;4.28;2.40;;;5.10;1.00;;;;;;5035560;28;20034;-81
2021/01/23 06:07:02;;;;;;;4.53;2.40;;;5.20;1.00;;;;;;5032064;28;20499;-81
2021/01/23 06:09:42;;;;;;;5.55;2.42;;;5.30;1.00;;;;;;5031157;28;20045;-81
2021/01/23 06:12:32;;;;;;;4.72;2.35;;;5.90;1.00;;;;;;5032224;28;20112;-81
2021/01/23 06:14:58;;;;;;;3.00;2.35;;;5.40;1.00;;;;;;5029916;28;20033;-81
2021/01/23 06:17:47;;;;;;;3.80;2.88;;;5.40;1.00;;;;;;5031329;28;20399;-81
2021/01/23 06:20:40;;;;;;;3.53;2.90;;;5.40;1.00;;;;;;5033155;28;20021;-81
2021/01/23 06:23:10;;;;;;;5.07;3.33;;;5.30;1.00;;;;;;5036048;28;20029;-81
2021/01/23 06:25:51;;;;;;;7.30;3.13;;;5.30;1.00;;;;;;5034579;28;20032;-81
2021/01/23 06:28:22;;;;;;;5.15;3.20;;;5.20;1.00;;;;;;5049090;28;20035;-81
2021/01/23 06:30:52;;;;;;;5.88;3.47;;;5.60;1.00;;;;;;5039759;28;20021;-81
2021/01/23 06:33:23;;;;;;;4.95;3.33;;;5.10;1.00;;;;;;5047688;28;20037;-81
2021/01/23 06:36:10;;;;;;;5.70;3.42;;;5.10;1.00;;;;;;5049338;28;20107;-81
2021/01/23 06:38:37;;;;;;;5.50;3.63;;;5.10;1.00;;;;;;5040369;28;20053;-81
2021/01/23 06:41:27;;;;;;;4.65;3.40;;;5.10;1.00;;;;;;5044791;28;20471;-81
2021/01/23 06:44:10;;;;;;;4.57;3.60;;;4.90;1.00;;;;;;5041155;28;20029;-81
2021/01/23 06:46:37;;;;;;;6.45;4.43;;;5.00;1.00;;;;;;5034130;28;20059;-81
2021/01/23 06:49:11;;;;;;;5.38;4.07;;;4.90;1.00;;;;;;5034617;28;20376;-81
2021/01/23 06:51:46;;;;;;;8.30;3.97;;;4.90;1.00;;;;;;5044328;28;20025;-81
2021/01/23 06:54:19;;;;;;;8.27;3.38;;;4.40;1.00;;;;;;5037591;28;20511;-81
2021/01/23 06:56:49;;;;;;;6.80;2.90;;;4.40;1.00;;;;;;5035544;28;20021;-81
2021/01/23 06:59:25;;;;;;;4.55;2.90;;;4.60;1.00;;;;;;5031327;28;20515;-80
2021/01/23 07:02:04;;;;;;;4.63;3.20;;;4.30;1.00;;;;;;5029035;28;20079;-80
2021/01/23 07:04:32;;;;;;;4.85;3.60;;;4.20;1.00;;;;;;5025051;28;20108;-81
2021/01/23 07:06:59;;;;;;;7.13;3.45;;;4.10;1.00;;;;;;5032252;28;20522;-80
2021/01/23 07:09:50;;;;;;;5.57;3.65;;;4.70;1.00;;;;;;5036320;28;20022;-80
2021/01/23 07:12:37;;;;;;;5.63;3.60;;;4.10;1.00;;;;;;5035705;28;20029;-80
2021/01/23 07:15:35;;;;;;;4.78;3.55;;;4.10;1.00;;;;;;5035196;28;20021;-80
2021/01/23 07:18:13;;;;;;;5.43;3.50;;;4.10;1.00;;;;;;5033284;28;20084;-80
2021/01/23 07:20:39;;;;;;;5.47;3.80;;;4.60;1.00;;;;;;5035131;28;20022;-80
2021/01/23 07:23:05;;;;;;;6.10;3.30;;;4.50;1.00;;;;;;5035211;28;20025;-80
2021/01/23 07:25:31;;;;;;;4.22;3.03;;;4.50;1.00;;;;;;5035231;28;20040;-81
2021/01/23 07:27:57;;;;;;;7.13;3.30;;;4.00;1.00;;;;;;5034801;28;20021;-81
2021/01/23 07:30:23;;;;;;;5.95;3.45;;;4.50;1.00;;;;;;5035149;28;20052;-81
2021/01/23 07:32:49;;;;;;;5.78;3.13;;;3.90;1.00;;;;;;5035245;28;20426;-81
2021/01/23 07:35:16;;;;;;;5.32;3.70;;;4.20;1.00;;;;;;5034834;28;20025;-81
2021/01/23 07:37:43;;;;;;;4.22;3.10;;;4.00;1.00;;;;;;5034962;28;20030;-81
2021/01/23 07:40:10;;;;;;;4.40;2.65;;;4.50;1.00;;;;;;5034990;28;20036;-81
2021/01/23 07:42:37;;;;;;;6.22;2.97;;;4.10;1.00;;;;;;5034959;28;20021;-81
2021/01/23 07:45:10;;;;;;;3.00;2.55;;;4.70;1.00;;;;;;5034814;28;20029;-81
2021/01/23 07:47:36;;;;;;;3.85;2.50;;;4.20;1.00;;;;;;5034316;28;20513;-81
2021/01/23 07:50:13;;;;;;;3.85;2.60;;;4.60;1.00;;;;;;5034845;28;20096;-81
2021/01/23 07:52:40;;;;;;;3.63;2.70;;;4.60;1.00;;;;;;5033476;28;20437;-81
2021/01/23 07:55:08;;;;;;;3.55;2.47;;;4.80;1.00;;;;;;5034454;28;20037;-81
2021/01/23 07:57:34;;;;;;;3.08;2.33;;;4.60;1.00;;;;;;5034790;28;20487;-81
2021/01/23 08:00:00;;;;;;;3.90;2.35;;;5.10;1.00;;;;;;5034361;28;20045;-81
2021/01/23 08:02:26;;;;;;;4.60;2.47;;;4.70;1.00;;;;;;5034115;28;20048;-81
2021/01/23 08:04:56;;;;;;;4.85;2.45;;;5.10;1.00;;;;;;5034282;28;20029;-81
2021/01/23 08:07:30;;;;;;;4.65;3.22;;;5.00;1.00;;;;;;5034416;28;20495;-81
2021/01/23 08:10:19;;;;;;;7.22;3.40;;;5.10;1.00;;;;;;5034453;28;20491;-81
2021/01/23 08:13:05;;;;;;;6.18;3.58;;;5.40;1.00;;;;;;5014681;28;20034;-81
2021/01/23 08:15:37;;;;;;;5.55;3.13;;;5.80;1.00;;;;;;5024207;28;20053;-81
2021/01/23 08:18:17;;;;;;;4.35;2.97;;;5.90;1.00;;;;;;5034004;28;20026;-81
2021/01/23 08:20:42;;;;;;;4.75;3.28;;;7.90;1.00;;;;;;5034267;28;20132;-81
2021/01/23 08:23:10;;;;;;;3.75;2.80;;;9.50;1.00;;;;;;5033994;28;20502;-81
2021/01/23 08:25:50;;;;;;;6.13;3.28;;;12.60;99.90;;;;;;5034136;28;20033;-81
2021/01/23 08:28:32;;;;;;;7.05;3.58;;;10.10;99.90;;;;;;5034038;28;20056;-81
2021/01/23 08:31:20;;;;;;;7.40;4.10;;;13.20;99.90;;;;;;5033589;28;20147;-81
2021/01/23 08:33:54;;;;;;;5.10;4.10;;;16.80;99.90;;;;;;5033989;28;20086;-81
2021/01/23 08:36:24;;;;;;;6.93;4.93;;;17.30;99.90;;;;;;5033927;28;20483;-81
2021/01/23 08:38:56;;;;;;;6.30;3.28;;;16.70;99.90;;;;;;5033943;28;20025;-81
2021/01/23 08:41:22;;;;;;;5.88;3.83;;;14.60;99.90;;;;;;5032996;28;20426;-81
2021/01/23 08:43:48;;;;;;;4.20;3.13;;;14.20;99.90;;;;;;5033812;28;20021;-81
2021/01/23 08:46:13;;;;;;;4.72;3.20;;;13.20;99.90;;;;;;5033194;28;20033;-81
2021/01/23 08:48:39;;;;;;;7.03;2.90;;;13.50;99.90;;;;;;5033697;28;20076;-81
2021/01/23 08:51:04;;;;;;;4.20;2.75;;;17.50;99.90;;;;;;5033607;28;20364;-81
2021/01/23 08:53:30;;;;;;;2.90;2.50;;;20.90;99.90;;;;;;5033424;28;20021;-81
2021/01/23 08:55:56;;;;;;;4.15;2.55;;;22.00;99.90;;;;;;5033465;28;20118;-81
2021/01/23 08:58:21;;;;;;;3.45;2.50;;;21.30;99.90;;;;;;5033228;28;20036;-82
2021/01/23 09:00:47;;;;;;;3.63;2.42;;;17.50;99.90;;;;;;5033143;28;20126;-82
2021/01/23 09:03:12;;;;;;;2.60;2.28;;;14.60;99.90;;;;;;5033281;28;20032;-81
2021/01/23 09:05:38;;;;;;;3.45;2.38;;;12.90;99.90;;;;;;5033461;28;20029;-81
2021/01/23 09:08:04;;;;;;;3.97;1.90;;;11.80;99.90;;;;;;5033196;28;20522;-81
2021/01/23 09:10:30;;;;;;;3.17;1.67;;;11.20;99.90;;;;;;5032046;28;20638;-81
2021/01/23 09:12:55;;;;;;;3.83;2.47;;;10.90;99.90;;;;;;5033249;28;20095;-81
2021/01/23 09:15:21;;;;;;;6.03;2.80;;;10.80;99.90;;;;;;5033123;28;20057;-81
2021/01/23 09:17:47;;;;;;;3.75;2.30;;;10.70;99.90;;;;;;5033090;28;20475;-81
2021/01/23 09:20:13;;;;;;;3.10;2.10;;;10.50;99.90;;;;;;5032876;28;20096;-81
2021/01/23 09:22:38;;;;;;;2.20;1.90;;;10.80;99.90;;;;;;5033094;28;20080;-81
2021/01/23 09:25:05;;;;;;;5.10;2.28;;;11.30;99.90;;;;;;5032939;28;20045;-81
2021/01/23 09:27:30;;;;;;;4.20;1.98;;;11.90;99.90;;;;;;5033035;28;20113;-81
2021/01/23 09:29:56;;;;;;;3.97;2.75;;;11.60;99.90;;;;;;5032627;28;20105;-81
2021/01/23 09:32:22;;;;;;;3.20;2.30;;;10.50;99.90;;;;;;5032773;28;20076;-81
2021/01/23 09:34:48;;;;;;;2.55;1.80;;;9.60;99.90;;;;;;5032760;28;20382;-81
2021/01/23 09:37:14;;;;;;;2.70;1.42;;;8.90;99.90;;;;;;5032771;28;20050;-81
2021/01/23 09:39:40;;;;;;;2.92;1.60;;;8.40;99.90;;;;;;5032870;28;20079;-81
2021/01/23 09:42:06;;;;;;;3.47;1.52;;;8.20;99.90;;;;;;5032544;28;20037;-81
2021/01/23 09:44:32;;;;;;;2.13;1.30;;;8.20;99.90;;;;;;5032565;28;20025;-81
2021/01/23 09:46:57;;;;;;;2.20;1.60;;;8.50;99.90;;;;;;5032642;28;20069;-81
2021/01/23 09:49:23;;;;;;;3.28;1.63;;;8.30;99.90;;;;;;5032623;28;20401;-81
2021/01/23 09:51:49;;;;;;;3.13;1.75;;;8.40;99.90;;;;;;5032339;28;20021;-81
2021/01/23 09:54:14;;;;;;;3.75;1.90;;;8.50;99.90;;;;;;5032349;28;20085;-81
2021/01/23 09:56:40;;;;;;;3.58;1.98;;;8.60;99.90;;;;;;5032526;28;20071;-81
2021/01/23 09:59:05;;;;;;;2.35;1.30;;;8.70;99.90;;;;;;5031846;28;20058;-81
2021/01/23 10:01:31;;;;;;;3.65;1.55;;;8.80;99.90;;;;;;5032306;28;20503;-81
2021/01/23 10:03:57;;;;;;;4.65;1.63;;;8.80;99.90;;;;;;5032412;28;20033;-81
2021/01/23 10:06:25;;;;;;;2.35;1.50;;;8.70;99.90;;;;;;5032164;28;20097;-81
2021/01/23 10:08:51;;;;;;;2.47;1.48;;;8.50;99.90;;;;;;5031120;28;20026;-81
2021/01/23 10:11:18;;;;;;;3.72;1.42;;;8.30;99.90;;;;;;5032260;28;20136;-81
2021/01/23 10:13:43;;;;;;;5.70;1.33;;;7.80;99.90;;;;;;5032210;28;20022;-81
2021/01/23 10:16:09;;;;;;;4.22;2.75;;;7.80;99.90;;;;;;5032127;28;20036;-81
2021/01/23 10:18:37;;;;;;;3.72;1.90;;;8.10;99.90;;;;;;5032398;28;20056;-81
2021/01/23 10:21:04;;;;;;;4.45;1.90;;;8.20;99.90;;;;;;5032120;28;20576;-81
2021/01/23 10:23:30;;;;;;;1.55;1.05;;;7.90;99.90;;;;;;5032215;28;20029;-81
2021/01/23 10:25:56;;;;;;;3.40;1.50;;;8.00;99.90;;;;;;5031942;28;20040;-81
2021/01/23 10:28:21;;;;;;;2.63;1.60;;;7.70;99.90;;;;;;5031744;28;20087;-81
2021/01/23 10:30:47;;;;;;;3.10;1.60;;;7.70;99.90;;;;;;5032164;28;20032;-81
2021/01/23 10:33:12;;;;;;;2.90;1.45;;;7.80;99.90;;;;;;5032151;28;20026;-81
2021/01/23 10:35:38;;;;;;;2.83;1.40;;;7.60;99.90;;;;;;5031984;28;20405;-81
2021/01/23 10:38:04;;;;;;;2.42;1.30;;;8.00;99.90;;;;;;5032094;28;20026;-81
2021/01/23 10:40:30;;;;;;;4.97;1.40;;;7.60;99.90;;;;;;5032041;28;20029;-81
2021/01/23 10:42:55;;;;;;;3.20;1.40;;;7.60;99.90;;;;;;5031599;28;20064;-81
2021/01/23 10:45:21;;;;;;;1.90;1.02;;;8.00;99.90;;;;;;5032089;28;20060;-81
2021/01/23 10:47:47;;;;;;;1.70;1.27;;;7.90;99.90;;;;;;5031926;28;20128;-81
2021/01/23 10:50:13;;;;;;;4.00;1.38;;;8.00;99.90;;;;;;5031867;28;20543;-81
2021/01/23 10:52:38;;;;;;;2.15;1.42;;;8.00;99.90;;;;;;5031986;28;20026;-81
2021/01/23 10:55:05;;;;;;;3.63;1.60;;;7.90;99.90;;;;;;5031849;28;20022;-81
2021/01/23 10:57:30;;;;;;;2.38;1.70;;;8.10;99.90;;;;;;5031719;28;20547;-81
2021/01/23 10:59:56;;;;;;;3.85;2.67;;;8.20;99.90;;;;;;5031818;28;20049;-81
2021/01/23 11:02:21;;;;;;;2.03;1.30;;;8.10;99.90;;;;;;5031659;28;20056;-81
2021/01/23 11:04:47;;;;;;;2.75;1.42;;;8.30;99.90;;;;;;5034776;28;20022;-81
2021/01/23 11:07:13;;;;;;;2.97;1.42;;;7.90;99.90;;;;;;5035422;28;20083;-81
2021/01/23 11:09:39;;;;;;;4.97;1.55;;;8.10;99.90;;;;;;5035546;28;20497;-81
2021/01/23 11:12:05;;;;;;;2.42;1.30;;;8.00;99.90;;;;;;5035685;28;20100;-81
2021/01/23 11:14:31;;;;;;;1.83;1.20;;;7.80;99.90;;;;;;5035635;28;20032;-81
2021/01/23 11:16:56;;;;;;;1.83;1.10;;;8.10;99.90;;;;;;5035391;28;20477;-81
2021/01/23 11:19:22;;;;;;;2.22;1.33;;;8.30;99.90;;;;;;5035373;28;20029;-81
2021/01/23 11:21:47;;;;;;;2.80;1.75;;;8.20;99.90;;;;;;5035417;28;20103;-81
2021/01/23 11:24:13;;;;;;;1.40;1.10;;;8.20;99.90;;;;;;5035359;28;20017;-81
2021/01/23 11:26:39;;;;;;;3.45;1.85;;;8.20;99.90;;;;;;5034995;28;20113;-81
2021/01/23 11:29:04;;;;;;;2.30;1.20;;;7.70;99.90;;;;;;5035137;28;20029;-81
2021/01/23 11:31:30;;;;;;;1.67;1.15;;;7.80;99.90;;;;;;5034951;28;20033;-81
2021/01/23 11:33:56;;;;;;;1.90;1.30;;;8.20;99.90;;;;;;5035337;28;20517;-81
2021/01/23 11:36:21;;;;;;;1.25;1.13;;;8.10;99.90;;;;;;5035010;28;20104;-81
2021/01/23 11:38:47;;;;;;;1.67;1.20;;;8.40;99.90;;;;;;5035152;28;20102;-81
2021/01/23 11:41:13;;;;;;;2.85;1.52;;;11.00;99.90;;;;;;5034701;28;20036;-81
2021/01/23 11:43:38;;;;;;;1.83;1.10;;;14.10;99.90;;;;;;5033148;28;20040;-82
2021/01/23 11:46:04;;;;;;;1.42;1.20;;;15.00;99.90;;;;;;5035776;28;20387;-81
2021/01/23 11:48:30;;;;;;;2.72;1.40;;;15.30;99.90;;;;;;5050015;28;20033;-80
2021/01/23 11:50:58;;;;;;;2.85;1.50;;;13.10;99.90;;;;;;5052657;28;20444;-80
2021/01/23 11:53:24;;;;;;;1.83;1.23;;;11.80;99.90;;;;;;5034714;28;20479;-82
2021/01/23 11:55:50;;;;;;;2.45;1.38;;;11.30;99.90;;;;;;5035814;28;20025;-81
2021/01/23 11:58:16;;;;;;;1.92;1.55;;;11.20;99.90;;;;;;5038937;28;20104;-81
2021/01/23 12:00:42;;;;;;;1.77;0.90;;;10.30;99.90;;;;;;5034065;28;20392;-81
2021/01/23 12:03:08;;;;;;;2.20;1.17;;;9.60;99.90;;;;;;5034119;28;20026;-80
2021/01/23 12:05:33;;;;;;;1.83;1.25;;;8.80;99.90;;;;;;5036335;28;20029;-80
2021/01/23 12:08:00;;;;;;;2.72;1.10;;;8.50;99.90;;;;;;5044705;28;20025;-81
2021/01/23 12:10:26;;;;;;;2.47;1.25;;;8.40;99.90;;;;;;5042092;28;20107;-81
2021/01/23 12:12:52;;;;;;;2.92;1.23;;;8.10;99.90;;;;;;5032648;28;20072;-81
2021/01/23 12:15:18;;;;;;;2.10;1.17;;;8.10;99.90;;;;;;5032036;28;20384;-80
2021/01/23 12:17:44;;;;;;;4.13;1.33;;;8.30;99.90;;;;;;5042640;28;20029;-81
2021/01/23 12:20:11;;;;;;;1.38;1.08;;;8.00;99.90;;;;;;5031718;28;20460;-80
2021/01/23 12:22:40;;;;;;;2.25;0.90;;;8.10;99.90;;;;;;5033388;28;20036;-80
2021/01/23 12:25:08;;;;;;;1.95;0.98;;;8.40;99.90;;;;;;5042887;28;20108;-80
2021/01/23 12:27:34;;;;;;;1.63;0.80;;;8.40;99.90;;;;;;5052795;28;20032;-80
2021/01/23 12:30:01;;;;;;;2.45;0.88;;;8.30;99.90;;;;;;5053372;28;20025;-80
2021/01/23 12:32:27;;;;;;;2.25;1.00;;;8.80;99.90;;;;;;5045805;28;20018;-80
2021/01/23 12:34:52;;;;;;;2.33;1.20;;;9.20;99.90;;;;;;5033921;28;20024;-80
2021/01/23 12:37:18;;;;;;;2.83;1.23;;;8.80;99.90;;;;;;5033445;28;20144;-80
2021/01/23 12:39:43;;;;;;;1.80;0.85;;;8.50;99.90;;;;;;5044461;28;20394;-81
2021/01/23 12:42:09;;;;;;;3.60;0.90;;;8.20;99.90;;;;;;5037151;28;20014;-80
2021/01/23 12:44:35;;;;;;;1.67;0.88;;;8.30;99.90;;;;;;5033429;28;20383;-82
2021/01/23 12:47:00;;;;;;;2.70;1.40;;;8.20;99.90;;;;;;5033336;28;20032;-85
2021/01/23 12:49:26;;;;;;;2.58;1.20;;;8.10;99.90;;;;;;5034770;28;20091;-86
2021/01/23 12:51:52;;;;;;;2.15;1.17;;;8.20;99.90;;;;;;5040845;28;20021;-84
2021/01/23 12:54:17;;;;;;;1.80;0.93;;;9.50;99.90;;;;;;5033208;28;20104;-82
2021/01/23 12:56:43;;;;;;;2.45;1.00;;;13.60;99.90;;;;;;5033212;28;20505;-82
2021/01/23 12:59:09;;;;;;;1.33;1.13;;;12.70;99.90;;;;;;5033142;28;20053;-83
2021/01/23 13:01:41;;;;;;;1.95;1.13;;;11.10;99.90;;;;;;5033174;28;20032;-83
2021/01/23 13:04:07;;;;;;;3.17;1.55;;;12.20;99.90;;;;;;5052091;28;20035;-82
2021/01/23 13:06:34;;;;;;;1.95;1.15;;;13.90;99.90;;;;;;5050917;28;20563;-82
2021/01/23 13:08:59;;;;;;;2.85;1.20;;;15.80;99.90;;;;;;5052333;28;20079;-82